Time;durP1;ratioP1;P1;durP2;ratioP2;P2;SDS_P1;SDS_P2;PMS_P1;PMS_P2;Temp;Humidity;BMP_temperature;BMP_pressure;BME280_temperature;BME280_humidity;BME280_pressure;Samples;Min_cycle;Max_cycle;Signal;HPM_P1;HPM_P2
2023/06/18 00:00:36;;;;;;;8.15;7.13;;;17.10;46.60;;;;;;5034895;28;20087;-70
2023/06/18 00:03:02;;;;;;;10.05;7.15;;;17.10;46.70;;;;;;5017101;28;20029;-71
2023/06/18 00:05:28;;;;;;;10.00;7.55;;;17.20;46.60;;;;;;5016635;28;20022;-70
2023/06/18 00:07:53;;;;;;;10.60;7.68;;;17.10;46.60;;;;;;5016971;28;20049;-70
2023/06/18 00:10:19;;;;;;;9.30;7.53;;;17.10;46.30;;;;;;5016885;28;20025;-71
2023/06/18 00:12:45;;;;;;;8.48;7.18;;;17.10;46.50;;;;;;5016723;28;20546;-70
2023/06/18 00:15:10;;;;;;;7.80;7.00;;;17.10;46.30;;;;;;5034807;28;20074;-70
2023/06/18 00:17:36;;;;;;;7.90;7.10;;;17.10;46.40;;;;;;5017182;28;20029;-70
2023/06/18 00:20:03;;;;;;;8.27;7.07;;;17.20;46.20;;;;;;5034726;28;20541;-70
2023/06/18 00:22:28;;;;;;;8.10;7.05;;;17.20;46.00;;;;;;5017315;28;20053;-71
2023/06/18 00:24:54;;;;;;;10.27;7.25;;;17.30;45.90;;;;;;5016719;28;20488;-70
2023/06/18 00:27:20;;;;;;;7.30;6.60;;;17.20;45.80;;;;;;5034546;28;20053;-70
2023/06/18 00:29:46;;;;;;;7.95;7.15;;;17.20;45.80;;;;;;5016340;28;20025;-70
2023/06/18 00:32:15;;;;;;;10.50;7.18;;;17.30;46.00;;;;;;5034131;28;20474;-70
2023/06/18 00:34:41;;;;;;;9.02;7.07;;;17.20;45.90;;;;;;5033829;28;20021;-70
2023/06/18 00:37:09;;;;;;;9.95;7.35;;;17.20;46.10;;;;;;5016467;28;20036;-70
2023/06/18 00:39:38;;;;;;;9.07;6.70;;;17.20;46.10;;;;;;5016317;28;20036;-70
2023/06/18 00:42:05;;;;;;;9.30;7.15;;;17.20;45.90;;;;;;5016259;28;20048;-70
2023/06/18 00:44:31;;;;;;;11.98;7.82;;;17.10;46.20;;;;;;5016459;28;20032;-70
2023/06/18 00:46:59;;;;;;;8.98;7.43;;;17.10;46.20;;;;;;5034073;28;20535;-71
2023/06/18 00:49:28;;;;;;;10.70;7.50;;;17.00;46.20;;;;;;5034007;28;20111;-70
2023/06/18 00:51:54;;;;;;;8.88;7.72;;;17.00;46.30;;;;;;5016140;28;20044;-70
2023/06/18 00:54:20;;;;;;;8.40;6.88;;;17.00;46.40;;;;;;5015950;28;20470;-69
2023/06/18 00:56:51;;;;;;;12.60;7.35;;;17.00;46.20;;;;;;5033857;28;20030;-70
2023/06/18 00:59:25;;;;;;;9.90;6.88;;;17.10;46.10;;;;;;5033893;28;20032;-70
2023/06/18 01:01:55;;;;;;;9.15;7.22;;;17.10;46.10;;;;;;5016043;28;20029;-70
2023/06/18 01:04:25;;;;;;;8.43;6.47;;;17.10;46.20;;;;;;5033526;28;20052;-70
2023/06/18 01:06:52;;;;;;;9.38;7.05;;;17.10;46.90;;;;;;5016153;28;20022;-70
2023/06/18 01:09:22;;;;;;;9.85;7.47;;;17.10;45.90;;;;;;5015958;28;20514;-70
2023/06/18 01:11:52;;;;;;;8.80;6.45;;;17.10;46.00;;;;;;5015944;28;20030;-70
2023/06/18 01:14:22;;;;;;;8.50;7.03;;;17.00;46.10;;;;;;5016215;28;20017;-70
2023/06/18 01:16:51;;;;;;;10.52;7.45;;;17.00;46.00;;;;;;5033469;28;20018;-70
2023/06/18 01:19:43;;;;;;;8.55;6.75;;;17.00;46.00;;;;;;5015748;28;20164;-70
2023/06/18 01:22:26;;;;;;;8.40;7.22;;;16.90;46.20;;;;;;5015933;28;20043;-70
2023/06/18 01:24:55;;;;;;;9.68;7.47;;;16.90;46.20;;;;;;5015827;28;20549;-70
2023/06/18 01:27:23;;;;;;;9.48;6.53;;;16.90;46.40;;;;;;5015787;28;20026;-70
2023/06/18 01:29:51;;;;;;;9.13;7.45;;;16.90;46.20;;;;;;5014936;28;20029;-80
2023/06/18 01:32:17;;;;;;;10.07;7.10;;;16.90;46.20;;;;;;5033295;28;20065;-81
2023/06/18 01:34:43;;;;;;;9.30;6.72;;;16.80;46.40;;;;;;5033425;28;20053;-81
2023/06/18 01:37:46;;;;;;;9.25;6.90;;;16.80;46.60;;;;;;5033242;28;20526;-79
2023/06/18 01:40:12;;;;;;;14.57;8.05;;;16.80;46.70;;;;;;5015354;28;20025;-75
2023/06/18 01:42:47;;;;;;;7.97;7.18;;;16.80;47.00;;;;;;5015567;28;20428;-78
2023/06/18 01:45:22;;;;;;;11.63;7.57;;;16.70;47.40;;;;;;5032942;28;20029;-80
2023/06/18 01:47:49;;;;;;;9.73;7.50;;;16.60;47.60;;;;;;5032900;28;20021;-80
2023/06/18 01:50:17;;;;;;;9.38;6.95;;;16.50;48.10;;;;;;5015346;28;20603;-80
2023/06/18 01:52:44;;;;;;;9.20;7.43;;;16.50;47.80;;;;;;5015080;28;20048;-80
2023/06/18 01:55:11;;;;;;;7.55;6.75;;;16.60;47.70;;;;;;5015608;28;20352;-81
2023/06/18 01:57:36;;;;;;;8.55;6.95;;;16.50;47.80;;;;;;5032962;28;20442;-81
2023/06/18 02:00:04;;;;;;;10.27;7.40;;;16.50;47.80;;;;;;5033046;28;20025;-81
2023/06/18 02:02:30;;;;;;;10.10;7.20;;;16.60;47.50;;;;;;5015279;28;20482;-81
2023/06/18 02:04:56;;;;;;;7.68;6.88;;;16.50;47.70;;;;;;5015366;28;20482;-81
2023/06/18 02:07:22;;;;;;;8.65;6.88;;;16.40;47.90;;;;;;5014882;28;20108;-81
2023/06/18 02:09:48;;;;;;;8.15;7.03;;;16.50;47.80;;;;;;5015331;28;20603;-80
2023/06/18 02:12:13;;;;;;;9.52;7.38;;;16.50;47.70;;;;;;5032805;28;20040;-80
2023/06/18 02:14:39;;;;;;;9.02;7.45;;;16.50;47.70;;;;;;5032750;28;20485;-80
2023/06/18 02:17:05;;;;;;;9.68;7.50;;;16.50;47.50;;;;;;5015069;28;20021;-74
2023/06/18 02:19:31;;;;;;;9.40;7.47;;;16.60;47.40;;;;;;5032668;28;20067;-76
2023/06/18 02:21:57;;;;;;;9.25;8.05;;;16.60;47.50;;;;;;5032600;28;20481;-71
2023/06/18 02:24:23;;;;;;;8.63;7.00;;;16.60;47.30;;;;;;5015158;28;20076;-72
2023/06/18 02:26:49;;;;;;;9.93;7.10;;;16.60;47.40;;;;;;5015041;28;20033;-70
2023/06/18 02:29:14;;;;;;;9.02;7.30;;;16.60;47.30;;;;;;5014983;28;20478;-72
2023/06/18 02:31:40;;;;;;;10.50;7.35;;;16.60;47.30;;;;;;5014840;28;20041;-72
2023/06/18 02:34:05;;;;;;;7.97;6.97;;;16.60;47.20;;;;;;5014865;28;20160;-75
2023/06/18 02:36:32;;;;;;;9.88;7.28;;;16.60;47.20;;;;;;5014861;28;20101;-71
2023/06/18 02:38:58;;;;;;;9.00;7.88;;;16.50;47.40;;;;;;5015072;28;20018;-81
2023/06/18 02:41:24;;;;;;;11.55;8.50;;;16.50;47.40;;;;;;5014946;28;20111;-74
2023/06/18 02:43:50;;;;;;;9.15;7.00;;;16.50;47.50;;;;;;5014792;28;20060;-70
2023/06/18 02:46:17;;;;;;;9.30;7.30;;;16.50;47.50;;;;;;5014734;28;20040;-70
2023/06/18 02:48:42;;;;;;;8.98;8.02;;;16.40;47.50;;;;;;5014754;28;20486;-70
2023/06/18 02:51:08;;;;;;;11.27;7.50;;;16.40;47.40;;;;;;5014632;28;20029;-71
2023/06/18 02:53:34;;;;;;;8.23;6.93;;;16.40;47.30;;;;;;5032726;28;20034;-70
2023/06/18 02:56:01;;;;;;;9.27;7.60;;;16.40;47.50;;;;;;5014849;28;20128;-71
2023/06/18 02:58:29;;;;;;;8.10;7.22;;;16.40;47.70;;;;;;5017278;28;20382;-69
2023/06/18 03:00:56;;;;;;;10.00;7.43;;;16.40;47.80;;;;;;5018343;28;20025;-71
2023/06/18 03:03:22;;;;;;;8.43;7.30;;;16.30;47.50;;;;;;5018594;28;20033;-71
2023/06/18 03:05:47;;;;;;;10.75;6.40;;;16.40;47.50;;;;;;5018443;28;20112;-71
2023/06/18 03:08:13;;;;;;;8.63;7.00;;;16.40;47.30;;;;;;5018206;28;20103;-71
2023/06/18 03:10:40;;;;;;;10.40;7.53;;;16.40;47.40;;;;;;5035835;28;20107;-71
2023/06/18 03:13:06;;;;;;;8.10;6.68;;;16.40;47.30;;;;;;5018214;28;20116;-82
2023/06/18 03:15:32;;;;;;;9.02;6.82;;;16.40;47.20;;;;;;5035998;28;20447;-79
2023/06/18 03:17:57;;;;;;;9.55;7.10;;;16.50;47.30;;;;;;5018262;28;20032;-83
2023/06/18 03:20:23;;;;;;;7.50;6.38;;;16.50;47.20;;;;;;5018120;28;20474;-82
2023/06/18 03:22:49;;;;;;;9.70;7.30;;;16.40;47.10;;;;;;5035789;28;20470;-69
2023/06/18 03:25:15;;;;;;;9.38;6.80;;;16.50;47.10;;;;;;5035734;28;20033;-71
2023/06/18 03:27:42;;;;;;;9.30;7.65;;;16.40;46.90;;;;;;5017964;28;20021;-71
2023/06/18 03:30:08;;;;;;;7.13;6.38;;;16.30;47.10;;;;;;5017801;28;20053;-71
2023/06/18 03:32:34;;;;;;;9.57;6.68;;;16.30;47.20;;;;;;5017581;28;20367;-72
2023/06/18 03:35:00;;;;;;;8.73;7.18;;;16.30;47.10;;;;;;5017639;28;20167;-71
2023/06/18 03:37:27;;;;;;;12.02;7.60;;;16.40;47.10;;;;;;5017871;28;20071;-71
2023/06/18 03:39:52;;;;;;;7.13;6.43;;;16.40;47.20;;;;;;5017887;28;20546;-71
2023/06/18 03:42:18;;;;;;;8.82;7.57;;;16.40;47.40;;;;;;5035329;28;20026;-71
2023/06/18 03:44:43;;;;;;;9.00;7.13;;;16.40;47.20;;;;;;5035287;28;20026;-71
2023/06/18 03:47:10;;;;;;;8.63;6.80;;;16.40;47.20;;;;;;5035230;28;20029;-71
2023/06/18 03:49:35;;;;;;;7.63;6.55;;;16.40;47.00;;;;;;5017644;28;20112;-71
2023/06/18 03:52:01;;;;;;;8.07;6.93;;;16.50;47.10;;;;;;5017359;28;20124;-71
2023/06/18 03:54:27;;;;;;;8.07;7.20;;;16.50;47.20;;;;;;5017426;28;20025;-71
2023/06/18 03:56:52;;;;;;;8.05;6.80;;;16.60;46.90;;;;;;5017393;28;20095;-70
2023/06/18 03:59:18;;;;;;;7.78;6.50;;;16.60;46.50;;;;;;5017243;28;20067;-70
2023/06/18 04:01:44;;;;;;;9.48;6.90;;;16.70;46.50;;;;;;5035091;28;20470;-71
2023/06/18 04:04:09;;;;;;;8.55;6.60;;;16.70;46.50;;;;;;5034994;28;20021;-71
2023/06/18 04:06:35;;;;;;;10.55;7.03;;;16.60;46.50;;;;;;5034920;28;20021;-71
2023/06/18 04:09:00;;;;;;;7.80;6.68;;;16.70;46.50;;;;;;5034105;28;20045;-71
2023/06/18 04:11:27;;;;;;;7.13;6.43;;;16.60;46.40;;;;;;5034712;28;20046;-71
2023/06/18 04:13:52;;;;;;;7.78;6.97;;;16.60;46.80;;;;;;5034815;28;20033;-71
2023/06/18 04:16:18;;;;;;;8.38;7.05;;;16.60;47.10;;;;;;5034860;28;20060;-71
2023/06/18 04:18:43;;;;;;;8.57;7.25;;;16.60;47.30;;;;;;5034687;28;20036;-71
2023/06/18 04:21:09;;;;;;;10.55;7.30;;;16.60;47.30;;;;;;5034734;28;20025;-71
2023/06/18 04:23:35;;;;;;;7.65;6.85;;;16.40;48.00;;;;;;5034517;28;20470;-72
2023/06/18 04:26:00;;;;;;;11.15;7.55;;;16.40;48.10;;;;;;5017224;28;20052;-72
2023/06/18 04:28:26;;;;;;;8.10;7.28;;;16.40;48.20;;;;;;5017024;28;20462;-71
2023/06/18 04:30:51;;;;;;;8.98;7.38;;;16.40;48.40;;;;;;5034188;28;20462;-71
2023/06/18 04:33:17;;;;;;;8.65;7.25;;;16.20;48.70;;;;;;5034370;28;20030;-70
2023/06/18 04:35:45;;;;;;;7.53;6.72;;;16.30;48.80;;;;;;5016740;28;20095;-71
2023/06/18 04:38:11;;;;;;;9.18;6.78;;;16.30;49.00;;;;;;5016819;28;20025;-71
2023/06/18 04:40:36;;;;;;;8.80;6.95;;;16.30;49.30;;;;;;5034297;28;20022;-69
2023/06/18 04:43:03;;;;;;;11.13;7.18;;;16.20;49.50;;;;;;5016427;28;20026;-71
2023/06/18 04:45:28;;;;;;;9.02;7.00;;;16.20;49.80;;;;;;5016467;28;20033;-69
2023/06/18 04:47:54;;;;;;;8.02;6.72;;;16.20;49.80;;;;;;5016482;28;20021;-72
2023/06/18 04:50:21;;;;;;;8.80;6.95;;;16.30;49.80;;;;;;5016395;28;20120;-71
2023/06/18 04:52:46;;;;;;;11.15;7.40;;;16.30;49.80;;;;;;5033971;28;20078;-72
2023/06/18 04:55:12;;;;;;;7.68;6.63;;;16.30;49.80;;;;;;5034078;28;20482;-72
2023/06/18 04:57:39;;;;;;;10.25;7.65;;;16.40;49.70;;;;;;5033794;28;20034;-70
2023/06/18 05:00:05;;;;;;;10.77;6.97;;;16.40;49.70;;;;;;5033919;28;20017;-70
2023/06/18 05:02:31;;;;;;;9.27;7.07;;;16.50;49.70;;;;;;5034105;28;20034;-71
2023/06/18 05:04:56;;;;;;;10.48;7.35;;;16.60;49.40;;;;;;5034000;28;20022;-70
2023/06/18 05:07:22;;;;;;;9.27;7.30;;;16.70;49.00;;;;;;5033549;28;20036;-71
2023/06/18 05:09:48;;;;;;;9.68;7.53;;;16.80;48.70;;;;;;5016113;28;20091;-71
2023/06/18 05:12:14;;;;;;;10.50;7.70;;;16.80;48.80;;;;;;5016030;28;20083;-71
2023/06/18 05:14:40;;;;;;;11.98;8.05;;;16.90;48.80;;;;;;5015781;28;20479;-70
2023/06/18 05:17:05;;;;;;;7.53;6.80;;;17.10;48.60;;;;;;5015630;28;20120;-70
2023/06/18 05:19:31;;;;;;;9.07;7.25;;;17.30;48.50;;;;;;5015955;28;20478;-71
2023/06/18 05:21:58;;;;;;;9.82;7.53;;;17.30;48.30;;;;;;5015047;28;20108;-70
2023/06/18 05:24:23;;;;;;;7.75;6.95;;;17.50;48.20;;;;;;5015855;28;20064;-70
2023/06/18 05:26:49;;;;;;;9.13;7.28;;;17.60;47.70;;;;;;5015822;28;20025;-70
2023/06/18 05:29:18;;;;;;;7.38;6.68;;;17.70;46.60;;;;;;5015576;28;20471;-69
2023/06/18 05:31:44;;;;;;;9.98;6.75;;;17.90;45.80;;;;;;5015490;28;20073;-70
2023/06/18 05:34:09;;;;;;;8.65;7.25;;;18.00;45.40;;;;;;5015503;28;20025;-77
2023/06/18 05:36:35;;;;;;;7.90;6.75;;;18.00;45.30;;;;;;5015656;28;20024;-81
2023/06/18 05:39:02;;;;;;;7.25;6.45;;;18.00;45.00;;;;;;5033410;28;20021;-81
2023/06/18 05:41:28;;;;;;;6.80;6.13;;;18.10;44.90;;;;;;5033632;28;20382;-82
2023/06/18 05:43:53;;;;;;;8.73;7.32;;;18.30;44.70;;;;;;5033385;28;20033;-81
2023/06/18 05:46:19;;;;;;;7.20;6.50;;;18.50;44.50;;;;;;5048211;28;20029;-71
2023/06/18 05:48:44;;;;;;;7.28;6.47;;;18.50;44.20;;;;;;5049385;28;20033;-75
2023/06/18 05:51:10;;;;;;;8.23;7.22;;;18.70;44.10;;;;;;5028924;28;20557;-82
2023/06/18 05:53:35;;;;;;;8.00;7.20;;;18.80;43.90;;;;;;5034897;28;20033;-80
2023/06/18 05:56:01;;;;;;;10.38;6.93;;;18.90;43.30;;;;;;5034477;28;20056;-79
2023/06/18 05:58:27;;;;;;;7.35;6.40;;;19.00;42.70;;;;;;5016115;28;20032;-75
2023/06/18 06:00:52;;;;;;;8.15;7.22;;;19.10;42.80;;;;;;5015957;28;20079;-79
2023/06/18 06:03:18;;;;;;;6.85;6.15;;;19.10;43.50;;;;;;5015994;28;20046;-79
2023/06/18 06:05:43;;;;;;;10.43;7.25;;;19.10;43.80;;;;;;5033198;28;20496;-78
2023/06/18 06:08:09;;;;;;;9.75;7.20;;;19.20;44.40;;;;;;5032872;28;20041;-78
2023/06/18 06:10:36;;;;;;;8.80;6.55;;;19.40;44.70;;;;;;5033092;28;20026;-82
2023/06/18 06:13:02;;;;;;;6.78;6.07;;;19.50;44.60;;;;;;5033065;28;20112;-78
2023/06/18 06:15:27;;;;;;;8.05;6.93;;;19.70;44.70;;;;;;5033157;28;20053;-75
2023/06/18 06:17:53;;;;;;;7.68;6.55;;;19.90;45.20;;;;;;5015350;28;20442;-78
2023/06/18 06:20:19;;;;;;;6.63;5.63;;;20.10;44.70;;;;;;5033283;28;20029;-81
2023/06/18 06:22:44;;;;;;;7.53;5.57;;;20.30;44.40;;;;;;5033162;28;20132;-80
2023/06/18 06:25:10;;;;;;;12.77;8.50;;;20.50;44.80;;;;;;5033241;28;20056;-81
2023/06/18 06:27:35;;;;;;;7.85;7.05;;;20.70;43.60;;;;;;5033443;28;20024;-81
2023/06/18 06:30:01;;;;;;;9.57;7.00;;;20.80;43.10;;;;;;5033281;28;20052;-79
2023/06/18 06:32:28;;;;;;;6.88;6.18;;;21.00;42.90;;;;;;5017087;28;20040;-84
2023/06/18 06:34:53;;;;;;;7.45;6.70;;;21.10;42.40;;;;;;5037530;28;20094;-73
2023/06/18 06:37:19;;;;;;;7.35;6.28;;;21.30;41.90;;;;;;5036442;28;20104;-78
2023/06/18 06:39:45;;;;;;;7.47;6.65;;;21.30;41.50;;;;;;5036778;28;20613;-81
2023/06/18 06:42:10;;;;;;;8.45;6.40;;;21.40;41.30;;;;;;5036932;28;20033;-80
2023/06/18 06:44:36;;;;;;;7.03;6.32;;;21.50;41.60;;;;;;5037422;28;20466;-78
2023/06/18 06:47:02;;;;;;;7.93;6.47;;;21.60;41.40;;;;;;5037151;28;20478;-77
2023/06/18 06:49:27;;;;;;;10.70;7.30;;;21.70;40.90;;;;;;5036632;28;20048;-76
2023/06/18 06:51:56;;;;;;;7.00;6.22;;;21.90;40.30;;;;;;5036677;28;20045;-78
2023/06/18 06:54:22;;;;;;;7.13;6.43;;;21.90;40.00;;;;;;5037226;28;20021;-80
2023/06/18 06:56:48;;;;;;;9.85;7.18;;;22.00;39.80;;;;;;5036757;28;20053;-77
2023/06/18 06:59:13;;;;;;;8.65;6.72;;;22.20;39.40;;;;;;5037166;28;20064;-80
2023/06/18 07:01:39;;;;;;;9.65;7.05;;;22.30;39.20;;;;;;5037209;28;20132;-78
2023/06/18 07:04:05;;;;;;;9.70;6.68;;;22.40;39.60;;;;;;5038649;28;20014;-79
2023/06/18 07:06:31;;;;;;;9.07;6.97;;;22.50;39.80;;;;;;5037972;28;20056;-82
2023/06/18 07:08:57;;;;;;;9.15;6.88;;;22.60;39.70;;;;;;5037362;28;20045;-77
2023/06/18 07:11:23;;;;;;;7.22;6.35;;;22.70;39.60;;;;;;5037495;28;20664;-80
2023/06/18 07:13:49;;;;;;;9.05;6.93;;;22.70;39.80;;;;;;5039414;28;20502;-72
2023/06/18 07:16:15;;;;;;;7.95;6.45;;;22.60;40.00;;;;;;5019906;28;20176;-78
2023/06/18 07:18:40;;;;;;;11.65;6.97;;;22.60;39.90;;;;;;5036451;28;20045;-81
2023/06/18 07:21:06;;;;;;;8.10;6.50;;;22.60;39.70;;;;;;5036209;28;20036;-80
2023/06/18 07:23:32;;;;;;;15.02;6.53;;;22.60;39.40;;;;;;5027750;28;20363;-78
2023/06/18 07:25:57;;;;;;;14.70;6.60;;;22.70;41.50;;;;;;5042346;28;20025;-76
2023/06/18 07:28:23;;;;;;;10.15;6.35;;;23.00;42.00;;;;;;5059755;28;20033;-74
2023/06/18 07:30:48;;;;;;;7.93;6.22;;;23.10;40.60;;;;;;5058474;28;20407;-79
2023/06/18 07:33:14;;;;;;;9.90;6.63;;;23.30;39.60;;;;;;5058385;28;20028;-76
2023/06/18 07:35:39;;;;;;;9.18;6.45;;;23.40;39.60;;;;;;5037982;28;20386;-77
2023/06/18 07:38:05;;;;;;;11.77;6.30;;;23.40;39.30;;;;;;5038312;28;20033;-77
2023/06/18 07:40:33;;;;;;;6.85;5.93;;;23.60;39.20;;;;;;5038052;28;20021;-79
2023/06/18 07:43:00;;;;;;;7.53;6.03;;;23.80;38.60;;;;;;5037500;28;20116;-77
2023/06/18 07:45:25;;;;;;;9.00;6.28;;;24.00;38.10;;;;;;5054353;28;20021;-73
2023/06/18 07:47:51;;;;;;;7.15;5.95;;;24.10;36.60;;;;;;5055524;28;20040;-78
2023/06/18 07:50:16;;;;;;;7.40;6.15;;;24.20;36.20;;;;;;5055387;28;20095;-77
2023/06/18 07:52:42;;;;;;;10.43;6.05;;;24.30;36.00;;;;;;5048689;28;20033;-74
2023/06/18 07:55:08;;;;;;;10.90;6.32;;;24.50;36.30;;;;;;5020101;28;20533;-79
2023/06/18 07:57:34;;;;;;;8.45;6.60;;;24.60;34.90;;;;;;5019481;28;20117;-78
2023/06/18 08:00:00;;;;;;;9.95;6.28;;;24.60;35.10;;;;;;5036168;28;20060;-75
2023/06/18 08:02:25;;;;;;;7.53;6.32;;;24.50;34.10;;;;;;5037248;28;20049;-76
2023/06/18 08:04:51;;;;;;;7.43;6.18;;;24.50;33.40;;;;;;5018028;28;20029;-77
2023/06/18 08:07:16;;;;;;;7.72;6.10;;;24.50;32.40;;;;;;5034972;28;20022;-72
2023/06/18 08:09:42;;;;;;;7.30;6.57;;;24.50;32.70;;;;;;5017167;28;20049;-78
2023/06/18 08:12:08;;;;;;;11.27;6.57;;;24.60;32.90;;;;;;5035330;28;20046;-78
2023/06/18 08:14:33;;;;;;;8.52;6.50;;;24.60;33.60;;;;;;5035122;28;20048;-71
2023/06/18 08:16:59;;;;;;;8.30;6.00;;;24.70;34.20;;;;;;5034928;28;20041;-71
2023/06/18 08:19:25;;;;;;;8.60;6.45;;;24.70;34.20;;;;;;5035128;28;20107;-72
2023/06/18 08:21:52;;;;;;;6.45;5.75;;;24.80;34.20;;;;;;5034610;28;20034;-75
2023/06/18 08:24:17;;;;;;;7.13;6.40;;;25.00;34.50;;;;;;5034407;28;20104;-71
2023/06/18 08:26:44;;;;;;;6.95;6.25;;;25.10;34.50;;;;;;5016914;28;20057;-77
2023/06/18 08:29:09;;;;;;;7.05;6.35;;;25.20;34.20;;;;;;5034656;28;20018;-79
2023/06/18 08:31:35;;;;;;;7.13;6.35;;;25.30;33.40;;;;;;5034563;28;20052;-79
2023/06/18 08:34:01;;;;;;;10.05;6.57;;;25.30;33.30;;;;;;5034479;28;20018;-80
2023/06/18 08:36:26;;;;;;;9.45;5.88;;;25.40;33.70;;;;;;5034615;28;20172;-75
2023/06/18 08:38:52;;;;;;;8.75;5.80;;;25.50;33.20;;;;;;5035057;28;20021;-80
2023/06/18 08:41:17;;;;;;;6.88;6.18;;;25.60;32.70;;;;;;5018535;28;20026;-76
2023/06/18 08:43:45;;;;;;;7.00;5.57;;;25.70;32.60;;;;;;5034986;28;20083;-80
2023/06/18 08:46:15;;;;;;;7.32;5.50;;;25.80;30.80;;;;;;5017201;28;20025;-73
2023/06/18 08:49:00;;;;;;;12.13;5.78;;;26.00;31.30;;;;;;5017580;28;20026;-76
2023/06/18 08:51:26;;;;;;;9.35;5.90;;;26.00;28.20;;;;;;5036434;28;20068;-80
2023/06/18 08:54:14;;;;;;;5.88;5.28;;;26.10;27.60;;;;;;5035060;28;20364;-78
2023/06/18 08:56:46;;;;;;;7.28;5.22;;;26.20;27.50;;;;;;5035101;28;20017;-75
2023/06/18 08:59:13;;;;;;;12.18;6.38;;;26.30;26.90;;;;;;5034801;28;20022;-75
2023/06/18 09:01:41;;;;;;;6.25;5.47;;;26.30;27.10;;;;;;5016968;28;20044;-78
2023/06/18 09:04:07;;;;;;;17.98;6.30;;;26.40;26.50;;;;;;5034193;28;20030;-79
2023/06/18 09:06:33;;;;;;;8.63;6.18;;;26.50;26.30;;;;;;5016843;28;20067;-78
2023/06/18 09:09:00;;;;;;;9.27;5.97;;;26.60;26.50;;;;;;5034229;28;20133;-75
2023/06/18 09:11:26;;;;;;;6.03;5.30;;;26.50;25.80;;;;;;5034359;28;20037;-73
2023/06/18 09:13:52;;;;;;;6.80;5.78;;;26.50;26.60;;;;;;5034060;28;20135;-73
2023/06/18 09:16:18;;;;;;;8.20;5.53;;;26.40;26.80;;;;;;5034313;28;20041;-78
2023/06/18 09:18:44;;;;;;;7.60;5.13;;;26.50;25.80;;;;;;5033944;28;20112;-77
2023/06/18 09:21:10;;;;;;;7.35;5.47;;;26.60;26.80;;;;;;5033913;28;20033;-77
2023/06/18 09:23:35;;;;;;;9.43;5.60;;;26.70;26.20;;;;;;5016903;28;20028;-78
2023/06/18 09:26:02;;;;;;;8.00;5.80;;;26.80;25.40;;;;;;5034325;28;20029;-78
2023/06/18 09:28:28;;;;;;;7.72;5.78;;;26.70;26.20;;;;;;5034377;28;20030;-79
2023/06/18 09:30:58;;;;;;;8.20;5.47;;;26.80;25.00;;;;;;5034351;28;20088;-78
2023/06/18 09:33:34;;;;;;;8.85;5.70;;;26.70;24.10;;;;;;5034223;28;20064;-73
2023/06/18 09:36:04;;;;;;;7.65;6.00;;;26.70;25.00;;;;;;5033672;28;20049;-75
2023/06/18 09:38:37;;;;;;;8.38;5.75;;;26.80;26.10;;;;;;5033680;28;20466;-72
2023/06/18 09:41:10;;;;;;;7.07;5.50;;;26.90;25.70;;;;;;5033640;28;20039;-77
2023/06/18 09:43:37;;;;;;;10.90;6.00;;;27.10;26.20;;;;;;5033406;28;20017;-77
2023/06/18 09:46:06;;;;;;;6.35;5.30;;;27.30;25.70;;;;;;5033697;28;20158;-76
2023/06/18 09:48:35;;;;;;;5.60;5.00;;;27.50;25.30;;;;;;5032851;28;20072;-79
2023/06/18 09:51:01;;;;;;;7.40;5.47;;;27.50;24.70;;;;;;5032901;28;20100;-75
2023/06/18 09:53:26;;;;;;;7.50;5.43;;;27.50;23.50;;;;;;5033285;28;20038;-78
2023/06/18 09:55:52;;;;;;;6.80;4.85;;;27.50;24.10;;;;;;5032943;28;20014;-76
2023/06/18 09:58:18;;;;;;;7.00;5.55;;;27.70;24.50;;;;;;5033064;28;20167;-79
2023/06/18 10:01:02;;;;;;;9.68;5.68;;;28.00;24.70;;;;;;5032892;28;20052;-80
2023/06/18 10:03:29;;;;;;;6.38;5.53;;;28.20;23.00;;;;;;5033012;28;20037;-77
2023/06/18 10:05:58;;;;;;;6.78;5.95;;;28.30;22.30;;;;;;5015242;28;20029;-76
2023/06/18 10:08:24;;;;;;;6.88;5.60;;;28.30;22.40;;;;;;5027708;28;20120;-76
2023/06/18 10:10:50;;;;;;;7.75;5.55;;;28.40;22.70;;;;;;5006611;28;20113;-76
2023/06/18 10:13:15;;;;;;;7.22;5.03;;;28.40;23.00;;;;;;5023143;28;20034;-78
2023/06/18 10:15:42;;;;;;;7.55;5.40;;;28.50;22.20;;;;;;5015674;28;20022;-76
2023/06/18 10:18:11;;;;;;;5.97;5.15;;;28.50;22.10;;;;;;5012823;28;20118;-76
2023/06/18 10:20:38;;;;;;;6.30;5.10;;;28.30;22.30;;;;;;5013021;28;20564;-78
2023/06/18 10:23:06;;;;;;;5.57;5.07;;;28.40;22.60;;;;;;5018333;28;20394;-77
2023/06/18 10:25:32;;;;;;;8.95;5.55;;;28.50;22.40;;;;;;5023525;28;20104;-77
2023/06/18 10:27:58;;;;;;;9.00;5.50;;;28.60;21.80;;;;;;5022263;28;20105;-72
2023/06/18 10:30:25;;;;;;;7.47;5.20;;;28.40;21.80;;;;;;5022356;28;20049;-77
2023/06/18 10:32:53;;;;;;;5.75;4.97;;;28.30;21.90;;;;;;5020910;28;20068;-78
2023/06/18 10:35:20;;;;;;;6.18;4.95;;;28.40;22.60;;;;;;5021597;28;20022;-79
2023/06/18 10:37:46;;;;;;;5.78;4.68;;;28.70;22.40;;;;;;5022325;28;20117;-77
2023/06/18 10:40:12;;;;;;;5.45;4.95;;;28.90;21.90;;;;;;5023454;28;20061;-78
2023/06/18 10:42:38;;;;;;;7.43;5.70;;;29.20;21.30;;;;;;5012955;28;20073;-87
2023/06/18 10:45:10;;;;;;;5.40;4.90;;;29.30;21.10;;;;;;5011744;28;20029;-78
2023/06/18 10:47:36;;;;;;;6.80;5.50;;;29.40;20.60;;;;;;5012369;28;20485;-77
2023/06/18 10:50:02;;;;;;;7.00;5.38;;;29.50;20.20;;;;;;5011872;28;20034;-77
2023/06/18 10:52:36;;;;;;;8.55;5.35;;;29.50;20.00;;;;;;5012762;28;20108;-78
2023/06/18 10:55:10;;;;;;;6.47;4.68;;;29.60;19.90;;;;;;5012709;28;20033;-77
2023/06/18 10:57:44;;;;;;;7.18;5.57;;;29.80;20.00;;;;;;5012709;28;20022;-78
2023/06/18 11:00:21;;;;;;;5.85;5.25;;;30.00;20.00;;;;;;5011555;28;20081;-73
2023/06/18 11:02:51;;;;;;;5.88;4.97;;;30.10;19.10;;;;;;5012900;28;20029;-74
2023/06/18 11:05:31;;;;;;;5.40;4.75;;;30.30;18.80;;;;;;5012888;28;20061;-72
2023/06/18 11:08:07;;;;;;;5.93;4.50;;;30.50;18.30;;;;;;5012403;28;20092;-74
2023/06/18 11:10:38;;;;;;;6.60;4.95;;;30.50;18.60;;;;;;5012747;28;20093;-73
2023/06/18 11:13:05;;;;;;;5.53;5.00;;;30.60;18.20;;;;;;5012468;28;20034;-74
2023/06/18 11:15:31;;;;;;;6.53;4.57;;;30.70;18.20;;;;;;5012561;28;20404;-75
2023/06/18 11:18:00;;;;;;;7.07;5.30;;;30.80;18.60;;;;;;5012401;28;20055;-75
2023/06/18 11:20:29;;;;;;;5.88;4.70;;;31.00;19.20;;;;;;5015344;28;20053;-76
2023/06/18 11:22:55;;;;;;;5.35;4.85;;;31.10;18.70;;;;;;5016035;28;20092;-70
2023/06/18 11:25:22;;;;;;;5.88;4.78;;;31.20;18.30;;;;;;5015814;28;20029;-71
2023/06/18 11:27:48;;;;;;;6.68;5.25;;;31.30;18.00;;;;;;5015725;28;20397;-71
2023/06/18 11:30:16;;;;;;;7.40;5.30;;;31.40;18.60;;;;;;5016072;28;20030;-72
2023/06/18 11:32:42;;;;;;;5.40;4.85;;;31.30;17.50;;;;;;5015855;28;20091;-75
2023/06/18 11:35:09;;;;;;;5.30;4.80;;;31.40;17.40;;;;;;5015624;28;20033;-75
2023/06/18 11:37:39;;;;;;;5.78;5.03;;;31.40;17.40;;;;;;5015550;28;20026;-73
2023/06/18 11:40:06;;;;;;;6.43;5.07;;;31.30;17.60;;;;;;5015927;28;20478;-74
2023/06/18 11:42:33;;;;;;;5.63;5.05;;;31.50;17.50;;;;;;5018038;28;20026;-85
2023/06/18 11:45:05;;;;;;;6.28;5.18;;;31.60;17.40;;;;;;5019182;28;20141;-86
2023/06/18 11:47:31;;;;;;;5.50;5.00;;;31.90;17.90;;;;;;5021840;28;20090;-77
2023/06/18 11:49:57;;;;;;;6.10;5.50;;;32.00;17.30;;;;;;5020259;28;20049;-90
2023/06/18 11:52:26;;;;;;;5.30;4.80;;;32.10;17.10;;;;;;5021316;28;20034;-80
2023/06/18 11:54:53;;;;;;;6.85;4.80;;;32.30;16.60;;;;;;5024878;28;20459;-83
2023/06/18 11:57:20;;;;;;;5.70;5.20;;;32.40;15.90;;;;;;5030122;28;20095;-85
2023/06/18 11:59:50;;;;;;;5.60;4.97;;;32.30;16.90;;;;;;5025533;28;20036;-77
2023/06/18 12:02:18;;;;;;;5.60;5.07;;;32.40;15.90;;;;;;5035997;28;20081;-77
2023/06/18 12:04:44;;;;;;;5.65;5.00;;;32.60;15.90;;;;;;5038606;28;20110;-76
2023/06/18 12:07:21;;;;;;;6.55;5.80;;;32.30;16.90;;;;;;5040066;28;20021;-73
2023/06/18 12:09:49;;;;;;;5.82;4.97;;;32.30;16.80;;;;;;5039923;28;20041;-71
2023/06/18 12:12:36;;;;;;;7.10;5.30;;;32.20;16.40;;;;;;5040141;28;20387;-77
2023/06/18 12:15:16;;;;;;;5.47;4.70;;;32.10;16.40;;;;;;5033929;28;20055;-84
2023/06/18 12:18:15;;;;;;;6.50;4.65;;;31.50;16.00;;;;;;5031323;28;20377;-93
2023/06/18 12:20:41;;;;;;;6.70;5.45;;;31.30;16.70;;;;;;5035324;28;20527;-91
2023/06/18 12:23:06;;;;;;;8.95;5.10;;;31.10;16.80;;;;;;5036242;28;20045;-92
2023/06/18 12:25:32;;;;;;;6.50;4.88;;;30.80;17.10;;;;;;5036774;28;20049;-77
2023/06/18 12:28:04;;;;;;;5.35;4.75;;;30.60;17.30;;;;;;5040497;28;20026;-93
2023/06/18 12:30:34;;;;;;;6.53;5.57;;;30.60;17.10;;;;;;5028722;28;20025;-89
2023/06/18 12:33:13;;;;;;;6.43;5.07;;;30.30;18.10;;;;;;5031379;28;20036;-92
2023/06/18 12:35:50;;;;;;;7.45;5.55;;;30.20;18.40;;;;;;5025190;28;20378;-73
2023/06/18 12:38:16;;;;;;;8.90;5.50;;;30.20;18.40;;;;;;5007812;28;20017;-71
2023/06/18 12:40:50;;;;;;;5.55;4.95;;;30.20;18.10;;;;;;5024304;28;20505;-72
2023/06/18 12:43:17;;;;;;;5.73;5.13;;;30.30;18.20;;;;;;5023591;28;20069;-72
2023/06/18 12:45:47;;;;;;;6.15;5.55;;;30.50;18.50;;;;;;5006054;28;20014;-73